sensor_id;sensor_type;location;lat;lon;timestamp;P1;durP1;ratioP1;P2;durP2;ratioP2
65172;SDS011;51758;52.218;5.172;2023-03-12T00:02:19;24.23;;;12.57;;
65172;SDS011;51758;52.218;5.172;2023-03-12T00:04:47;20.77;;;10.70;;
65172;SDS011;51758;52.218;5.172;2023-03-12T00:07:15;20.23;;;9.63;;
65172;SDS011;51758;52.218;5.172;2023-03-12T00:09:43;12.50;;;7.60;;
65172;SDS011;51758;52.218;5.172;2023-03-12T00:12:10;8.70;;;5.60;;
65172;SDS011;51758;52.218;5.172;2023-03-12T00:14:38;9.43;;;5.43;;
65172;SDS011;51758;52.218;5.172;2023-03-12T00:17:07;5.73;;;4.40;;
65172;SDS011;51758;52.218;5.172;2023-03-12T00:19:35;12.03;;;5.47;;
65172;SDS011;51758;52.218;5.172;2023-03-12T00:22:03;7.23;;;4.30;;
65172;SDS011;51758;52.218;5.172;2023-03-12T00:24:30;8.30;;;4.70;;
65172;SDS011;51758;52.218;5.172;2023-03-12T00:26:58;7.57;;;4.80;;
65172;SDS011;51758;52.218;5.172;2023-03-12T00:29:26;8.27;;;5.40;;
65172;SDS011;51758;52.218;5.172;2023-03-12T00:31:53;10.07;;;4.90;;
65172;SDS011;51758;52.218;5.172;2023-03-12T00:34:22;8.03;;;4.90;;
65172;SDS011;51758;52.218;5.172;2023-03-12T00:36:50;7.43;;;4.50;;
65172;SDS011;51758;52.218;5.172;2023-03-12T00:39:18;8.13;;;5.13;;
65172;SDS011;51758;52.218;5.172;2023-03-12T00:41:46;10.07;;;4.80;;
65172;SDS011;51758;52.218;5.172;2023-03-12T00:44:13;8.07;;;4.93;;
65172;SDS011;51758;52.218;5.172;2023-03-12T00:46:41;9.13;;;4.87;;
65172;SDS011;51758;52.218;5.172;2023-03-12T00:49:09;9.90;;;4.70;;
65172;SDS011;51758;52.218;5.172;2023-03-12T00:51:38;7.32;;;4.28;;
65172;SDS011;51758;52.218;5.172;2023-03-12T00:54:06;10.30;;;4.60;;
65172;SDS011;51758;52.218;5.172;2023-03-12T00:56:34;9.73;;;4.80;;
65172;SDS011;51758;52.218;5.172;2023-03-12T00:59:02;8.13;;;4.33;;
65172;SDS011;51758;52.218;5.172;2023-03-12T01:01:29;9.80;;;5.00;;
65172;SDS011;51758;52.218;5.172;2023-03-12T01:03:57;10.87;;;5.97;;
65172;SDS011;51758;52.218;5.172;2023-03-12T01:06:25;7.93;;;5.05;;
65172;SDS011;51758;52.218;5.172;2023-03-12T01:08:54;9.07;;;4.90;;
65172;SDS011;51758;52.218;5.172;2023-03-12T01:11:22;8.33;;;4.30;;
65172;SDS011;51758;52.218;5.172;2023-03-12T01:13:49;9.50;;;4.90;;
65172;SDS011;51758;52.218;5.172;2023-03-12T01:16:17;13.53;;;4.77;;
65172;SDS011;51758;52.218;5.172;2023-03-12T01:18:45;10.40;;;4.67;;
65172;SDS011;51758;52.218;5.172;2023-03-12T01:21:12;7.30;;;4.47;;
65172;SDS011;51758;52.218;5.172;2023-03-12T01:23:40;9.73;;;4.70;;
65172;SDS011;51758;52.218;5.172;2023-03-12T01:26:09;8.57;;;4.93;;
65172;SDS011;51758;52.218;5.172;2023-03-12T01:28:37;8.47;;;4.87;;
65172;SDS011;51758;52.218;5.172;2023-03-12T01:31:05;9.97;;;4.57;;
65172;SDS011;51758;52.218;5.172;2023-03-12T01:36:01;11.23;;;4.90;;
65172;SDS011;51758;52.218;5.172;2023-03-12T01:38:29;7.05;;;4.88;;
65172;SDS011;51758;52.218;5.172;2023-03-12T01:40:57;12.13;;;4.83;;
65172;SDS011;51758;52.218;5.172;2023-03-12T01:43:28;11.13;;;4.97;;
65172;SDS011;51758;52.218;5.172;2023-03-12T01:46:06;6.43;;;4.67;;
65172;SDS011;51758;52.218;5.172;2023-03-12T01:48:48;7.90;;;5.00;;
65172;SDS011;51758;52.218;5.172;2023-03-12T01:51:20;10.30;;;4.83;;
65172;SDS011;51758;52.218;5.172;2023-03-12T01:53:49;7.43;;;4.72;;
65172;SDS011;51758;52.218;5.172;2023-03-12T01:56:19;10.70;;;4.93;;
65172;SDS011;51758;52.218;5.172;2023-03-12T01:58:50;11.57;;;5.25;;
65172;SDS011;51758;52.218;5.172;2023-03-12T02:01:20;9.03;;;4.80;;
65172;SDS011;51758;52.218;5.172;2023-03-12T02:03:49;9.30;;;4.90;;
65172;SDS011;51758;52.218;5.172;2023-03-12T02:06:20;12.23;;;5.03;;
65172;SDS011;51758;52.218;5.172;2023-03-12T02:08:54;8.80;;;4.73;;
65172;SDS011;51758;52.218;5.172;2023-03-12T02:11:24;7.50;;;4.70;;
65172;SDS011;51758;52.218;5.172;2023-03-12T02:13:54;7.33;;;4.77;;
65172;SDS011;51758;52.218;5.172;2023-03-12T02:16:21;10.27;;;4.60;;
65172;SDS011;51758;52.218;5.172;2023-03-12T02:18:49;9.27;;;4.87;;
65172;SDS011;51758;52.218;5.172;2023-03-12T02:21:19;10.37;;;5.27;;
65172;SDS011;51758;52.218;5.172;2023-03-12T02:23:51;11.00;;;5.00;;
65172;SDS011;51758;52.218;5.172;2023-03-12T02:26:25;12.23;;;4.67;;
65172;SDS011;51758;52.218;5.172;2023-03-12T02:28:55;9.63;;;4.73;;
65172;SDS011;51758;52.218;5.172;2023-03-12T02:31:26;9.40;;;4.70;;
65172;SDS011;51758;52.218;5.172;2023-03-12T02:33:59;8.47;;;4.27;;
65172;SDS011;51758;52.218;5.172;2023-03-12T02:36:26;7.50;;;4.37;;
65172;SDS011;51758;52.218;5.172;2023-03-12T02:38:54;11.47;;;4.83;;
65172;SDS011;51758;52.218;5.172;2023-03-12T02:43:56;8.57;;;4.43;;
65172;SDS011;51758;52.218;5.172;2023-03-12T02:46:28;7.60;;;4.47;;
65172;SDS011;51758;52.218;5.172;2023-03-12T02:49:00;7.20;;;4.40;;
65172;SDS011;51758;52.218;5.172;2023-03-12T02:51:28;6.88;;;4.65;;
65172;SDS011;51758;52.218;5.172;2023-03-12T02:53:56;7.60;;;4.33;;
65172;SDS011;51758;52.218;5.172;2023-03-12T02:56:25;7.10;;;4.53;;
65172;SDS011;51758;52.218;5.172;2023-03-12T02:58:54;9.27;;;4.70;;
65172;SDS011;51758;52.218;5.172;2023-03-12T03:01:22;8.77;;;4.27;;
65172;SDS011;51758;52.218;5.172;2023-03-12T03:03:49;8.80;;;4.80;;
65172;SDS011;51758;52.218;5.172;2023-03-12T03:06:17;7.60;;;4.73;;
65172;SDS011;51758;52.218;5.172;2023-03-12T03:08:45;8.57;;;4.07;;
65172;SDS011;51758;52.218;5.172;2023-03-12T03:11:13;10.30;;;4.20;;
65172;SDS011;51758;52.218;5.172;2023-03-12T03:13:42;6.40;;;4.53;;
65172;SDS011;51758;52.218;5.172;2023-03-12T03:16:10;6.47;;;4.13;;
65172;SDS011;51758;52.218;5.172;2023-03-12T03:18:38;9.20;;;3.85;;
65172;SDS011;51758;52.218;5.172;2023-03-12T03:21:06;8.00;;;4.10;;
65172;SDS011;51758;52.218;5.172;2023-03-12T03:23:36;8.47;;;4.07;;
65172;SDS011;51758;52.218;5.172;2023-03-12T03:26:03;6.88;;;3.97;;
65172;SDS011;51758;52.218;5.172;2023-03-12T03:28:31;7.07;;;4.10;;
65172;SDS011;51758;52.218;5.172;2023-03-12T03:31:00;8.50;;;3.70;;
65172;SDS011;51758;52.218;5.172;2023-03-12T03:33:28;5.70;;;3.83;;
65172;SDS011;51758;52.218;5.172;2023-03-12T03:35:58;4.73;;;3.57;;
65172;SDS011;51758;52.218;5.172;2023-03-12T03:38:26;10.95;;;3.95;;
65172;SDS011;51758;52.218;5.172;2023-03-12T03:43:23;5.82;;;3.55;;
65172;SDS011;51758;52.218;5.172;2023-03-12T03:45:55;6.15;;;3.63;;
65172;SDS011;51758;52.218;5.172;2023-03-12T03:48:24;10.73;;;4.10;;
65172;SDS011;51758;52.218;5.172;2023-03-12T03:50:52;7.10;;;4.10;;
65172;SDS011;51758;52.218;5.172;2023-03-12T03:53:20;5.97;;;3.50;;
65172;SDS011;51758;52.218;5.172;2023-03-12T03:55:47;8.73;;;3.63;;
65172;SDS011;51758;52.218;5.172;2023-03-12T03:58:15;6.60;;;3.50;;
65172;SDS011;51758;52.218;5.172;2023-03-12T04:00:43;7.53;;;3.60;;
65172;SDS011;51758;52.218;5.172;2023-03-12T04:03:11;8.65;;;3.45;;
65172;SDS011;51758;52.218;5.172;2023-03-12T04:05:41;8.73;;;3.65;;
65172;SDS011;51758;52.218;5.172;2023-03-12T04:08:10;4.80;;;3.13;;
65172;SDS011;51758;52.218;5.172;2023-03-12T04:10:38;6.90;;;3.57;;
65172;SDS011;51758;52.218;5.172;2023-03-12T04:13:06;6.63;;;3.42;;
65172;SDS011;51758;52.218;5.172;2023-03-12T04:15:34;7.80;;;3.70;;
65172;SDS011;51758;52.218;5.172;2023-03-12T04:18:02;6.70;;;3.87;;
65172;SDS011;51758;52.218;5.172;2023-03-12T04:20:30;6.93;;;3.37;;
65172;SDS011;51758;52.218;5.172;2023-03-12T04:22:59;7.33;;;3.43;;
65172;SDS011;51758;52.218;5.172;2023-03-12T04:25:26;8.23;;;3.57;;
65172;SDS011;51758;52.218;5.172;2023-03-12T04:27:54;6.23;;;3.80;;
65172;SDS011;51758;52.218;5.172;2023-03-12T04:30:22;7.17;;;4.03;;
65172;SDS011;51758;52.218;5.172;2023-03-12T04:32:50;9.43;;;4.37;;
65172;SDS011;51758;52.218;5.172;2023-03-12T04:35:17;6.80;;;4.33;;
65172;SDS011;51758;52.218;5.172;2023-03-12T04:37:45;10.50;;;4.63;;
65172;SDS011;51758;52.218;5.172;2023-03-12T04:40:14;8.77;;;4.20;;
65172;SDS011;51758;52.218;5.172;2023-03-12T04:42:44;8.30;;;4.80;;
65172;SDS011;51758;52.218;5.172;2023-03-12T04:45:12;9.13;;;5.07;;
65172;SDS011;51758;52.218;5.172;2023-03-12T04:47:40;5.47;;;4.00;;
65172;SDS011;51758;52.218;5.172;2023-03-12T04:50:08;7.90;;;4.50;;
65172;SDS011;51758;52.218;5.172;2023-03-12T04:52:37;7.73;;;4.93;;
65172;SDS011;51758;52.218;5.172;2023-03-12T04:55:05;7.20;;;5.03;;
65172;SDS011;51758;52.218;5.172;2023-03-12T04:57:35;6.17;;;4.87;;
65172;SDS011;51758;52.218;5.172;2023-03-12T05:00:03;8.17;;;4.83;;
65172;SDS011;51758;52.218;5.172;2023-03-12T05:02:35;11.03;;;5.30;;
65172;SDS011;51758;52.218;5.172;2023-03-12T05:05:04;11.50;;;5.10;;
65172;SDS011;51758;52.218;5.172;2023-03-12T05:07:32;8.45;;;5.30;;
65172;SDS011;51758;52.218;5.172;2023-03-12T05:10:01;8.80;;;4.70;;
65172;SDS011;51758;52.218;5.172;2023-03-12T05:12:29;7.50;;;5.00;;
65172;SDS011;51758;52.218;5.172;2023-03-12T05:14:58;9.87;;;5.20;;
65172;SDS011;51758;52.218;5.172;2023-03-12T05:17:26;10.30;;;5.43;;
65172;SDS011;51758;52.218;5.172;2023-03-12T05:19:54;12.53;;;5.70;;
65172;SDS011;51758;52.218;5.172;2023-03-12T05:22:21;10.93;;;5.60;;
65172;SDS011;51758;52.218;5.172;2023-03-12T05:24:49;10.43;;;5.80;;
65172;SDS011;51758;52.218;5.172;2023-03-12T05:27:17;7.83;;;5.03;;
65172;SDS011;51758;52.218;5.172;2023-03-12T05:29:45;5.88;;;4.93;;
65172;SDS011;51758;52.218;5.172;2023-03-12T05:32:14;7.60;;;5.53;;
65172;SDS011;51758;52.218;5.172;2023-03-12T05:34:42;8.30;;;5.60;;
65172;SDS011;51758;52.218;5.172;2023-03-12T05:37:09;8.83;;;4.83;;
65172;SDS011;51758;52.218;5.172;2023-03-12T05:39:37;9.13;;;5.57;;
65172;SDS011;51758;52.218;5.172;2023-03-12T05:42:12;9.40;;;5.37;;
65172;SDS011;51758;52.218;5.172;2023-03-12T05:44:40;9.57;;;5.38;;
65172;SDS011;51758;52.218;5.172;2023-03-12T05:47:08;10.20;;;5.78;;
65172;SDS011;51758;52.218;5.172;2023-03-12T05:49:37;9.63;;;5.77;;
65172;SDS011;51758;52.218;5.172;2023-03-12T05:52:05;9.03;;;4.83;;
65172;SDS011;51758;52.218;5.172;2023-03-12T05:54:33;11.23;;;5.33;;
65172;SDS011;51758;52.218;5.172;2023-03-12T05:57:00;10.17;;;4.83;;
65172;SDS011;51758;52.218;5.172;2023-03-12T05:59:28;7.70;;;4.50;;
65172;SDS011;51758;52.218;5.172;2023-03-12T06:01:56;7.45;;;4.63;;
65172;SDS011;51758;52.218;5.172;2023-03-12T06:04:24;10.10;;;5.20;;
65172;SDS011;51758;52.218;5.172;2023-03-12T06:06:53;11.60;;;4.97;;
65172;SDS011;51758;52.218;5.172;2023-03-12T06:09:21;7.97;;;5.03;;
65172;SDS011;51758;52.218;5.172;2023-03-12T06:11:49;8.03;;;5.53;;
65172;SDS011;51758;52.218;5.172;2023-03-12T06:14:16;9.47;;;5.77;;
65172;SDS011;51758;52.218;5.172;2023-03-12T06:16:44;8.13;;;5.03;;
65172;SDS011;51758;52.218;5.172;2023-03-12T06:19:12;10.40;;;5.73;;
65172;SDS011;51758;52.218;5.172;2023-03-12T06:21:41;10.75;;;6.00;;
65172;SDS011;51758;52.218;5.172;2023-03-12T06:26:38;13.17;;;5.90;;
65172;SDS011;51758;52.218;5.172;2023-03-12T06:29:06;9.25;;;6.10;;
65172;SDS011;51758;52.218;5.172;2023-03-12T06:31:34;12.80;;;6.97;;
65172;SDS011;51758;52.218;5.172;2023-03-12T06:34:04;12.63;;;7.47;;
65172;SDS011;51758;52.218;5.172;2023-03-12T06:36:32;12.50;;;7.70;;
65172;SDS011;51758;52.218;5.172;2023-03-12T06:38:59;16.03;;;8.50;;
65172;SDS011;51758;52.218;5.172;2023-03-12T06:41:29;12.70;;;8.05;;
65172;SDS011;51758;52.218;5.172;2023-03-12T06:43:57;11.47;;;8.13;;
65172;SDS011;51758;52.218;5.172;2023-03-12T06:46:27;13.97;;;7.93;;
65172;SDS011;51758;52.218;5.172;2023-03-12T06:48:54;14.53;;;9.03;;
65172;SDS011;51758;52.218;5.172;2023-03-12T06:51:22;14.00;;;9.60;;
65172;SDS011;51758;52.218;5.172;2023-03-12T06:53:50;16.00;;;9.20;;
65172;SDS011;51758;52.218;5.172;2023-03-12T06:56:17;22.23;;;9.87;;
65172;SDS011;51758;52.218;5.172;2023-03-12T06:58:46;16.60;;;10.60;;
65172;SDS011;51758;52.218;5.172;2023-03-12T07:01:15;16.07;;;10.03;;
65172;SDS011;51758;52.218;5.172;2023-03-12T07:03:43;17.83;;;10.37;;
65172;SDS011;51758;52.218;5.172;2023-03-12T07:06:14;16.30;;;10.90;;
65172;SDS011;51758;52.218;5.172;2023-03-12T07:08:43;16.60;;;11.17;;
65172;SDS011;51758;52.218;5.172;2023-03-12T07:11:11;24.80;;;11.20;;
65172;SDS011;51758;52.218;5.172;2023-03-12T07:13:39;17.60;;;11.30;;
65172;SDS011;51758;52.218;5.172;2023-03-12T07:16:09;18.65;;;11.10;;
65172;SDS011;51758;52.218;5.172;2023-03-12T07:18:37;20.37;;;10.87;;
65172;SDS011;51758;52.218;5.172;2023-03-12T07:21:05;17.97;;;11.67;;
65172;SDS011;51758;52.218;5.172;2023-03-12T07:23:33;15.97;;;10.63;;
65172;SDS011;51758;52.218;5.172;2023-03-12T07:26:03;18.67;;;12.60;;
65172;SDS011;51758;52.218;5.172;2023-03-12T07:28:32;19.33;;;11.87;;
65172;SDS011;51758;52.218;5.172;2023-03-12T07:31:00;18.03;;;11.90;;
65172;SDS011;51758;52.218;5.172;2023-03-12T07:33:29;21.70;;;12.68;;
65172;SDS011;51758;52.218;5.172;2023-03-12T07:35:57;19.27;;;13.37;;
65172;SDS011;51758;52.218;5.172;2023-03-12T07:38:25;17.73;;;12.65;;
65172;SDS011;51758;52.218;5.172;2023-03-12T07:40:54;21.00;;;12.05;;
65172;SDS011;51758;52.218;5.172;2023-03-12T07:43:23;20.47;;;13.43;;
65172;SDS011;51758;52.218;5.172;2023-03-12T07:45:51;23.38;;;12.95;;
65172;SDS011;51758;52.218;5.172;2023-03-12T07:48:19;21.13;;;14.15;;
65172;SDS011;51758;52.218;5.172;2023-03-12T07:50:48;26.80;;;13.98;;
65172;SDS011;51758;52.218;5.172;2023-03-12T07:53:17;19.57;;;12.83;;
65172;SDS011;51758;52.218;5.172;2023-03-12T07:55:45;21.70;;;15.07;;
65172;SDS011;51758;52.218;5.172;2023-03-12T07:58:14;26.88;;;18.08;;
65172;SDS011;51758;52.218;5.172;2023-03-12T08:00:42;25.70;;;16.77;;
65172;SDS011;51758;52.218;5.172;2023-03-12T08:03:10;26.77;;;16.80;;
65172;SDS011;51758;52.218;5.172;2023-03-12T08:05:38;22.98;;;15.95;;
65172;SDS011;51758;52.218;5.172;2023-03-12T08:08:08;30.88;;;16.60;;
65172;SDS011;51758;52.218;5.172;2023-03-12T08:10:36;24.57;;;17.70;;
65172;SDS011;51758;52.218;5.172;2023-03-12T08:13:04;27.92;;;19.10;;
65172;SDS011;51758;52.218;5.172;2023-03-12T08:15:32;26.55;;;15.95;;
65172;SDS011;51758;52.218;5.172;2023-03-12T08:18:00;33.35;;;20.75;;
65172;SDS011;51758;52.218;5.172;2023-03-12T08:20:27;31.37;;;19.53;;
65172;SDS011;51758;52.218;5.172;2023-03-12T08:22:55;33.00;;;20.73;;
65172;SDS011;51758;52.218;5.172;2023-03-12T08:25:24;35.50;;;22.43;;
65172;SDS011;51758;52.218;5.172;2023-03-12T08:27:52;31.00;;;19.60;;
65172;SDS011;51758;52.218;5.172;2023-03-12T08:30:20;36.17;;;22.80;;
65172;SDS011;51758;52.218;5.172;2023-03-12T08:32:48;36.13;;;23.73;;
65172;SDS011;51758;52.218;5.172;2023-03-12T08:35:16;33.17;;;20.73;;
65172;SDS011;51758;52.218;5.172;2023-03-12T08:37:44;33.17;;;21.00;;
65172;SDS011;51758;52.218;5.172;2023-03-12T08:40:12;32.37;;;21.00;;
65172;SDS011;51758;52.218;5.172;2023-03-12T08:42:42;37.08;;;23.60;;
65172;SDS011;51758;52.218;5.172;2023-03-12T08:45:11;29.90;;;19.40;;
65172;SDS011;51758;52.218;5.172;2023-03-12T08:47:39;34.28;;;19.48;;
65172;SDS011;51758;52.218;5.172;2023-03-12T08:50:07;28.93;;;18.50;;
65172;SDS011;51758;52.218;5.172;2023-03-12T08:52:37;35.77;;;21.83;;
65172;SDS011;51758;52.218;5.172;2023-03-12T08:55:05;35.33;;;22.33;;
65172;SDS011;51758;52.218;5.172;2023-03-12T08:57:34;43.60;;;21.95;;
65172;SDS011;51758;52.218;5.172;2023-03-12T09:00:03;36.53;;;21.37;;
65172;SDS011;51758;52.218;5.172;2023-03-12T09:02:36;36.37;;;20.60;;
65172;SDS011;51758;52.218;5.172;2023-03-12T09:05:04;35.38;;;21.38;;
65172;SDS011;51758;52.218;5.172;2023-03-12T09:10:00;34.67;;;21.57;;
65172;SDS011;51758;52.218;5.172;2023-03-12T09:12:29;34.55;;;19.40;;
65172;SDS011;51758;52.218;5.172;2023-03-12T09:14:56;37.97;;;20.70;;
65172;SDS011;51758;52.218;5.172;2023-03-12T09:17:31;35.73;;;21.23;;
65172;SDS011;51758;52.218;5.172;2023-03-12T09:19:58;35.13;;;21.37;;
65172;SDS011;51758;52.218;5.172;2023-03-12T09:22:27;36.83;;;20.97;;
65172;SDS011;51758;52.218;5.172;2023-03-12T09:24:55;35.87;;;21.37;;
65172;SDS011;51758;52.218;5.172;2023-03-12T09:27:23;35.93;;;20.80;;
65172;SDS011;51758;52.218;5.172;2023-03-12T09:29:52;39.55;;;24.38;;
65172;SDS011;51758;52.218;5.172;2023-03-12T09:32:26;43.80;;;23.47;;
65172;SDS011;51758;52.218;5.172;2023-03-12T09:34:55;42.28;;;24.23;;
65172;SDS011;51758;52.218;5.172;2023-03-12T09:37:23;43.77;;;23.60;;
65172;SDS011;51758;52.218;5.172;2023-03-12T09:39:51;58.08;;;28.75;;
65172;SDS011;51758;52.218;5.172;2023-03-12T09:42:21;54.17;;;27.63;;
65172;SDS011;51758;52.218;5.172;2023-03-12T09:44:51;59.17;;;29.83;;
65172;SDS011;51758;52.218;5.172;2023-03-12T09:47:24;58.90;;;28.47;;
65172;SDS011;51758;52.218;5.172;2023-03-12T09:49:58;63.97;;;33.07;;
65172;SDS011;51758;52.218;5.172;2023-03-12T09:52:30;55.73;;;26.30;;
65172;SDS011;51758;52.218;5.172;2023-03-12T09:55:03;54.37;;;27.43;;
65172;SDS011;51758;52.218;5.172;2023-03-12T09:57:40;49.25;;;24.50;;
65172;SDS011;51758;52.218;5.172;2023-03-12T10:00:10;52.93;;;27.57;;
65172;SDS011;51758;52.218;5.172;2023-03-12T10:05:45;46.43;;;24.87;;
65172;SDS011;51758;52.218;5.172;2023-03-12T10:08:22;46.37;;;22.90;;
65172;SDS011;51758;52.218;5.172;2023-03-12T10:10:57;46.03;;;24.30;;
65172;SDS011;51758;52.218;5.172;2023-03-12T10:13:41;49.47;;;25.52;;
65172;SDS011;51758;52.218;5.172;2023-03-12T10:16:18;54.57;;;27.13;;
65172;SDS011;51758;52.218;5.172;2023-03-12T10:19:05;51.37;;;27.53;;
65172;SDS011;51758;52.218;5.172;2023-03-12T10:21:49;48.10;;;24.57;;
65172;SDS011;51758;52.218;5.172;2023-03-12T10:24:26;44.47;;;24.40;;
65172;SDS011;51758;52.218;5.172;2023-03-12T10:27:05;51.57;;;25.40;;
65172;SDS011;51758;52.218;5.172;2023-03-12T10:29:38;46.20;;;24.33;;
65172;SDS011;51758;52.218;5.172;2023-03-12T10:32:12;46.67;;;25.50;;
65172;SDS011;51758;52.218;5.172;2023-03-12T10:34:43;45.70;;;26.13;;
65172;SDS011;51758;52.218;5.172;2023-03-12T10:37:16;50.53;;;27.07;;
65172;SDS011;51758;52.218;5.172;2023-03-12T10:39:47;44.20;;;23.40;;
65172;SDS011;51758;52.218;5.172;2023-03-12T10:42:17;48.40;;;25.30;;
65172;SDS011;51758;52.218;5.172;2023-03-12T10:44:48;44.67;;;23.10;;
65172;SDS011;51758;52.218;5.172;2023-03-12T10:47:24;45.67;;;24.20;;
65172;SDS011;51758;52.218;5.172;2023-03-12T10:50:10;41.23;;;23.27;;
65172;SDS011;51758;52.218;5.172;2023-03-12T10:52:41;40.63;;;23.73;;
65172;SDS011;51758;52.218;5.172;2023-03-12T10:55:10;42.47;;;22.00;;
65172;SDS011;51758;52.218;5.172;2023-03-12T10:57:45;36.90;;;20.77;;
65172;SDS011;51758;52.218;5.172;2023-03-12T11:00:17;39.85;;;20.63;;
65172;SDS011;51758;52.218;5.172;2023-03-12T11:02:54;42.07;;;20.73;;
65172;SDS011;51758;52.218;5.172;2023-03-12T11:05:25;35.93;;;18.93;;
65172;SDS011;51758;52.218;5.172;2023-03-12T11:07:57;38.00;;;19.37;;
65172;SDS011;51758;52.218;5.172;2023-03-12T11:10:36;35.40;;;16.77;;
65172;SDS011;51758;52.218;5.172;2023-03-12T11:13:25;38.90;;;16.93;;
65172;SDS011;51758;52.218;5.172;2023-03-12T11:15:55;41.80;;;16.60;;
65172;SDS011;51758;52.218;5.172;2023-03-12T11:18:25;41.67;;;17.10;;
65172;SDS011;51758;52.218;5.172;2023-03-12T11:21:10;35.87;;;14.03;;
65172;SDS011;51758;52.218;5.172;2023-03-12T11:23:43;36.27;;;14.20;;
65172;SDS011;51758;52.218;5.172;2023-03-12T11:26:15;29.03;;;13.37;;
65172;SDS011;51758;52.218;5.172;2023-03-12T11:28:45;29.33;;;11.23;;
65172;SDS011;51758;52.218;5.172;2023-03-12T11:31:18;38.17;;;12.90;;
65172;SDS011;51758;52.218;5.172;2023-03-12T11:33:49;34.23;;;10.07;;
65172;SDS011;51758;52.218;5.172;2023-03-12T11:36:22;38.90;;;9.90;;
65172;SDS011;51758;52.218;5.172;2023-03-12T11:39:04;40.00;;;8.07;;
65172;SDS011;51758;52.218;5.172;2023-03-12T11:41:48;40.77;;;7.87;;
65172;SDS011;51758;52.218;5.172;2023-03-12T11:44:35;36.10;;;7.23;;
65172;SDS011;51758;52.218;5.172;2023-03-12T11:47:15;33.67;;;6.43;;
65172;SDS011;51758;52.218;5.172;2023-03-12T11:49:57;36.23;;;6.10;;
65172;SDS011;51758;52.218;5.172;2023-03-12T11:52:33;35.08;;;6.40;;
65172;SDS011;51758;52.218;5.172;2023-03-12T11:55:19;32.27;;;6.53;;
65172;SDS011;51758;52.218;5.172;2023-03-12T11:58:21;39.28;;;7.05;;
65172;SDS011;51758;52.218;5.172;2023-03-12T12:00:56;28.63;;;5.30;;
65172;SDS011;51758;52.218;5.172;2023-03-12T12:03:36;36.50;;;6.30;;
65172;SDS011;51758;52.218;5.172;2023-03-12T12:06:16;28.40;;;5.53;;
65172;SDS011;51758;52.218;5.172;2023-03-12T12:08:56;34.43;;;6.47;;
65172;SDS011;51758;52.218;5.172;2023-03-12T12:11:34;35.40;;;7.27;;
65172;SDS011;51758;52.218;5.172;2023-03-12T12:14:14;42.40;;;6.67;;
65172;SDS011;51758;52.218;5.172;2023-03-12T12:16:59;35.93;;;8.47;;
65172;SDS011;51758;52.218;5.172;2023-03-12T12:19:38;38.67;;;6.90;;
65172;SDS011;51758;52.218;5.172;2023-03-12T12:22:21;30.87;;;6.20;;
65172;SDS011;51758;52.218;5.172;2023-03-12T12:28:08;30.53;;;5.93;;
65172;SDS011;51758;52.218;5.172;2023-03-12T12:30:53;36.03;;;5.23;;
65172;SDS011;51758;52.218;5.172;2023-03-12T12:33:31;39.73;;;6.27;;
65172;SDS011;51758;52.218;5.172;2023-03-12T12:36:14;33.23;;;5.57;;
65172;SDS011;51758;52.218;5.172;2023-03-12T12:38:45;31.87;;;5.50;;
65172;SDS011;51758;52.218;5.172;2023-03-12T12:41:16;35.47;;;5.57;;
65172;SDS011;51758;52.218;5.172;2023-03-12T12:43:47;33.43;;;5.43;;
65172;SDS011;51758;52.218;5.172;2023-03-12T12:46:17;30.03;;;5.10;;
65172;SDS011;51758;52.218;5.172;2023-03-12T12:48:48;33.03;;;5.83;;
65172;SDS011;51758;52.218;5.172;2023-03-12T12:51:20;36.33;;;6.20;;
65172;SDS011;51758;52.218;5.172;2023-03-12T12:53:52;29.20;;;5.27;;
65172;SDS011;51758;52.218;5.172;2023-03-12T12:56:27;36.37;;;6.30;;
65172;SDS011;51758;52.218;5.172;2023-03-12T12:59:03;29.03;;;5.53;;
65172;SDS011;51758;52.218;5.172;2023-03-12T13:01:46;37.80;;;5.57;;
65172;SDS011;51758;52.218;5.172;2023-03-12T13:04:18;38.27;;;6.93;;
65172;SDS011;51758;52.218;5.172;2023-03-12T13:06:57;34.63;;;5.73;;
65172;SDS011;51758;52.218;5.172;2023-03-12T13:09:35;37.38;;;6.05;;
65172;SDS011;51758;52.218;5.172;2023-03-12T13:12:07;36.90;;;6.03;;
65172;SDS011;51758;52.218;5.172;2023-03-12T13:14:42;35.23;;;6.00;;
65172;SDS011;51758;52.218;5.172;2023-03-12T13:17:24;34.13;;;6.07;;
65172;SDS011;51758;52.218;5.172;2023-03-12T13:19:57;33.13;;;5.90;;
65172;SDS011;51758;52.218;5.172;2023-03-12T13:25:30;32.87;;;7.20;;
65172;SDS011;51758;52.218;5.172;2023-03-12T13:28:26;42.47;;;6.88;;
65172;SDS011;51758;52.218;5.172;2023-03-12T13:30:59;29.50;;;5.83;;
65172;SDS011;51758;52.218;5.172;2023-03-12T13:33:41;33.03;;;6.67;;
65172;SDS011;51758;52.218;5.172;2023-03-12T13:36:18;34.73;;;6.53;;
65172;SDS011;51758;52.218;5.172;2023-03-12T13:38:54;31.37;;;5.73;;
65172;SDS011;51758;52.218;5.172;2023-03-12T13:41:29;30.70;;;5.97;;
65172;SDS011;51758;52.218;5.172;2023-03-12T13:43:58;29.30;;;5.60;;
65172;SDS011;51758;52.218;5.172;2023-03-12T13:49:16;35.77;;;5.97;;
65172;SDS011;51758;52.218;5.172;2023-03-12T13:51:51;32.70;;;5.73;;
65172;SDS011;51758;52.218;5.172;2023-03-12T13:54:29;33.63;;;5.90;;
65172;SDS011;51758;52.218;5.172;2023-03-12T13:57:01;32.47;;;5.23;;
65172;SDS011;51758;52.218;5.172;2023-03-12T13:59:31;32.23;;;6.03;;
65172;SDS011;51758;52.218;5.172;2023-03-12T14:02:02;35.30;;;6.40;;
65172;SDS011;51758;52.218;5.172;2023-03-12T14:04:33;32.03;;;6.60;;
65172;SDS011;51758;52.218;5.172;2023-03-12T14:07:09;33.67;;;5.60;;
65172;SDS011;51758;52.218;5.172;2023-03-12T14:09:55;29.88;;;5.60;;
65172;SDS011;51758;52.218;5.172;2023-03-12T14:12:39;28.57;;;5.80;;
65172;SDS011;51758;52.218;5.172;2023-03-12T14:15:16;27.50;;;5.10;;
65172;SDS011;51758;52.218;5.172;2023-03-12T14:17:55;27.47;;;4.80;;
65172;SDS011;51758;52.218;5.172;2023-03-12T14:20:24;23.60;;;4.87;;
65172;SDS011;51758;52.218;5.172;2023-03-12T14:22:53;22.50;;;5.05;;
65172;SDS011;51758;52.218;5.172;2023-03-12T14:25:30;27.83;;;5.97;;
65172;SDS011;51758;52.218;5.172;2023-03-12T14:28:00;29.83;;;6.27;;
65172;SDS011;51758;52.218;5.172;2023-03-12T14:30:32;31.67;;;6.90;;
65172;SDS011;51758;52.218;5.172;2023-03-12T14:33:11;26.47;;;5.37;;
65172;SDS011;51758;52.218;5.172;2023-03-12T14:35:42;22.37;;;4.63;;
65172;SDS011;51758;52.218;5.172;2023-03-12T14:38:14;23.80;;;4.57;;
65172;SDS011;51758;52.218;5.172;2023-03-12T14:40:47;18.33;;;3.40;;
65172;SDS011;51758;52.218;5.172;2023-03-12T14:43:20;20.20;;;4.33;;
65172;SDS011;51758;52.218;5.172;2023-03-12T14:45:50;22.53;;;4.50;;
65172;SDS011;51758;52.218;5.172;2023-03-12T14:48:22;18.87;;;4.63;;
65172;SDS011;51758;52.218;5.172;2023-03-12T14:50:54;29.50;;;4.93;;
65172;SDS011;51758;52.218;5.172;2023-03-12T14:53:24;25.30;;;4.83;;
65172;SDS011;51758;52.218;5.172;2023-03-12T14:56:01;26.50;;;4.87;;
65172;SDS011;51758;52.218;5.172;2023-03-12T14:58:32;32.77;;;5.27;;
65172;SDS011;51758;52.218;5.172;2023-03-12T15:01:02;29.77;;;5.00;;
65172;SDS011;51758;52.218;5.172;2023-03-12T15:03:35;27.37;;;5.53;;
65172;SDS011;51758;52.218;5.172;2023-03-12T15:06:13;25.83;;;4.83;;
65172;SDS011;51758;52.218;5.172;2023-03-12T15:08:44;26.13;;;5.70;;
65172;SDS011;51758;52.218;5.172;2023-03-12T15:11:12;25.52;;;4.35;;
65172;SDS011;51758;52.218;5.172;2023-03-12T15:13:39;28.35;;;4.53;;
65172;SDS011;51758;52.218;5.172;2023-03-12T15:16:07;30.70;;;4.73;;
65172;SDS011;51758;52.218;5.172;2023-03-12T15:18:36;24.30;;;4.70;;
65172;SDS011;51758;52.218;5.172;2023-03-12T15:21:04;27.43;;;4.80;;
65172;SDS011;51758;52.218;5.172;2023-03-12T15:23:33;29.63;;;5.38;;